Terminal Aerodrome Forecast
Issued by NWS

Home | Current Version | Previous Version | Text Only | Print | Product List | Glossary On
Versions: 1 2 3 4 5 6 7 8 9 10 11 12 13 14 15 16 17 18 19 20 21 22 23 24 25 26
000
FTUS41 KGYX 162300
TAFPSM
TAF
KPSM 162320Z 1700/1724 34007KT P6SM SKC
     FM171100 04007KT P6SM SKC
     FM171400 09012KT P6SM SCT250
     FM172200 09010KT P6SM SCT010 SCT250=

USA.gov is the U.S. government's official web portal to all federal, state and local government web resources and services.